sensor_id;sensor_type;location;lat;lon;timestamp;P1;durP1;ratioP1;P2;durP2;ratioP2
8803;SDS011;4438;50.890;4.726;2023-04-24T00:01:54;16.50;;;12.47;;
8803;SDS011;4438;50.890;4.726;2023-04-24T00:04:20;17.17;;;13.33;;
8803;SDS011;4438;50.890;4.726;2023-04-24T00:06:46;15.77;;;13.40;;
8803;SDS011;4438;50.890;4.726;2023-04-24T00:09:18;16.50;;;13.47;;
8803;SDS011;4438;50.890;4.726;2023-04-24T00:11:44;16.87;;;13.57;;
8803;SDS011;4438;50.890;4.726;2023-04-24T00:14:11;16.13;;;13.23;;
8803;SDS011;4438;50.890;4.726;2023-04-24T00:16:37;21.17;;;14.20;;
8803;SDS011;4438;50.890;4.726;2023-04-24T00:19:03;18.10;;;14.33;;
8803;SDS011;4438;50.890;4.726;2023-04-24T00:21:31;19.47;;;14.30;;
8803;SDS011;4438;50.890;4.726;2023-04-24T00:23:57;17.40;;;13.20;;
8803;SDS011;4438;50.890;4.726;2023-04-24T00:26:24;17.33;;;13.60;;
8803;SDS011;4438;50.890;4.726;2023-04-24T00:28:50;15.53;;;13.30;;
8803;SDS011;4438;50.890;4.726;2023-04-24T00:31:16;16.93;;;13.40;;
8803;SDS011;4438;50.890;4.726;2023-04-24T00:33:42;20.37;;;14.00;;
8803;SDS011;4438;50.890;4.726;2023-04-24T00:36:08;17.87;;;13.70;;
8803;SDS011;4438;50.890;4.726;2023-04-24T00:38:34;21.13;;;13.40;;
8803;SDS011;4438;50.890;4.726;2023-04-24T00:41:00;16.13;;;13.53;;
8803;SDS011;4438;50.890;4.726;2023-04-24T00:43:27;16.40;;;14.20;;
8803;SDS011;4438;50.890;4.726;2023-04-24T00:45:53;15.20;;;13.43;;
8803;SDS011;4438;50.890;4.726;2023-04-24T00:48:20;18.90;;;14.47;;
8803;SDS011;4438;50.890;4.726;2023-04-24T00:50:46;17.47;;;14.23;;
8803;SDS011;4438;50.890;4.726;2023-04-24T00:53:12;16.57;;;14.37;;
8803;SDS011;4438;50.890;4.726;2023-04-24T00:55:38;17.40;;;14.60;;
8803;SDS011;4438;50.890;4.726;2023-04-24T00:58:04;22.10;;;15.67;;
8803;SDS011;4438;50.890;4.726;2023-04-24T01:00:31;15.70;;;14.10;;
8803;SDS011;4438;50.890;4.726;2023-04-24T01:02:57;18.30;;;14.83;;
8803;SDS011;4438;50.890;4.726;2023-04-24T01:05:24;15.60;;;13.97;;
8803;SDS011;4438;50.890;4.726;2023-04-24T01:07:51;17.30;;;15.07;;
8803;SDS011;4438;50.890;4.726;2023-04-24T01:10:17;23.40;;;15.67;;
8803;SDS011;4438;50.890;4.726;2023-04-24T01:12:45;18.40;;;14.73;;
8803;SDS011;4438;50.890;4.726;2023-04-24T01:15:12;21.57;;;14.53;;
8803;SDS011;4438;50.890;4.726;2023-04-24T01:17:38;16.80;;;13.90;;
8803;SDS011;4438;50.890;4.726;2023-04-24T01:20:04;16.57;;;14.17;;
8803;SDS011;4438;50.890;4.726;2023-04-24T01:22:32;16.40;;;14.30;;
8803;SDS011;4438;50.890;4.726;2023-04-24T01:24:58;17.67;;;14.73;;
8803;SDS011;4438;50.890;4.726;2023-04-24T01:27:24;17.73;;;14.50;;
8803;SDS011;4438;50.890;4.726;2023-04-24T01:29:50;17.87;;;13.77;;
8803;SDS011;4438;50.890;4.726;2023-04-24T01:32:17;16.13;;;14.17;;
8803;SDS011;4438;50.890;4.726;2023-04-24T01:34:43;18.53;;;14.00;;
8803;SDS011;4438;50.890;4.726;2023-04-24T01:37:10;25.30;;;14.90;;
8803;SDS011;4438;50.890;4.726;2023-04-24T01:39:36;17.20;;;12.77;;
8803;SDS011;4438;50.890;4.726;2023-04-24T01:42:02;14.70;;;12.77;;
8803;SDS011;4438;50.890;4.726;2023-04-24T01:44:28;13.83;;;12.43;;
8803;SDS011;4438;50.890;4.726;2023-04-24T01:46:54;17.50;;;13.17;;
8803;SDS011;4438;50.890;4.726;2023-04-24T01:49:21;16.77;;;11.70;;
8803;SDS011;4438;50.890;4.726;2023-04-24T01:51:47;17.10;;;12.17;;
8803;SDS011;4438;50.890;4.726;2023-04-24T01:54:13;13.93;;;12.37;;
8803;SDS011;4438;50.890;4.726;2023-04-24T01:56:40;15.17;;;11.80;;
8803;SDS011;4438;50.890;4.726;2023-04-24T01:59:10;13.97;;;12.03;;
8803;SDS011;4438;50.890;4.726;2023-04-24T02:01:37;13.47;;;11.77;;
8803;SDS011;4438;50.890;4.726;2023-04-24T02:04:03;14.23;;;11.63;;
8803;SDS011;4438;50.890;4.726;2023-04-24T02:06:30;14.30;;;11.40;;
8803;SDS011;4438;50.890;4.726;2023-04-24T02:08:57;13.23;;;11.70;;
8803;SDS011;4438;50.890;4.726;2023-04-24T02:11:23;12.03;;;10.80;;
8803;SDS011;4438;50.890;4.726;2023-04-24T02:13:49;11.90;;;10.70;;
8803;SDS011;4438;50.890;4.726;2023-04-24T02:16:16;13.27;;;11.83;;
8803;SDS011;4438;50.890;4.726;2023-04-24T02:18:43;13.43;;;10.90;;
8803;SDS011;4438;50.890;4.726;2023-04-24T02:21:09;15.77;;;11.33;;
8803;SDS011;4438;50.890;4.726;2023-04-24T02:23:35;13.80;;;11.20;;
8803;SDS011;4438;50.890;4.726;2023-04-24T02:26:01;13.93;;;12.53;;
8803;SDS011;4438;50.890;4.726;2023-04-24T02:28:27;14.57;;;12.00;;
8803;SDS011;4438;50.890;4.726;2023-04-24T02:30:53;14.80;;;12.97;;
8803;SDS011;4438;50.890;4.726;2023-04-24T02:33:19;15.27;;;13.50;;
8803;SDS011;4438;50.890;4.726;2023-04-24T02:35:45;18.53;;;13.83;;
8803;SDS011;4438;50.890;4.726;2023-04-24T02:38:11;14.83;;;13.30;;
8803;SDS011;4438;50.890;4.726;2023-04-24T02:40:37;17.20;;;14.13;;
8803;SDS011;4438;50.890;4.726;2023-04-24T02:43:03;16.70;;;14.30;;
8803;SDS011;4438;50.890;4.726;2023-04-24T02:45:30;16.37;;;14.13;;
8803;SDS011;4438;50.890;4.726;2023-04-24T02:47:56;16.20;;;14.23;;
8803;SDS011;4438;50.890;4.726;2023-04-24T02:50:22;19.20;;;14.90;;
8803;SDS011;4438;50.890;4.726;2023-04-24T02:52:48;16.13;;;14.43;;
8803;SDS011;4438;50.890;4.726;2023-04-24T02:55:14;16.97;;;13.67;;
8803;SDS011;4438;50.890;4.726;2023-04-24T02:57:40;15.00;;;13.50;;
8803;SDS011;4438;50.890;4.726;2023-04-24T03:00:06;16.63;;;14.13;;
8803;SDS011;4438;50.890;4.726;2023-04-24T03:02:33;16.93;;;14.33;;
8803;SDS011;4438;50.890;4.726;2023-04-24T03:05:00;15.20;;;13.60;;
8803;SDS011;4438;50.890;4.726;2023-04-24T03:07:27;16.20;;;14.33;;
8803;SDS011;4438;50.890;4.726;2023-04-24T03:09:53;17.80;;;14.67;;
8803;SDS011;4438;50.890;4.726;2023-04-24T03:12:19;16.03;;;14.33;;
8803;SDS011;4438;50.890;4.726;2023-04-24T03:14:45;16.87;;;14.77;;
8803;SDS011;4438;50.890;4.726;2023-04-24T03:17:11;16.77;;;14.77;;
8803;SDS011;4438;50.890;4.726;2023-04-24T03:19:37;15.80;;;13.77;;
8803;SDS011;4438;50.890;4.726;2023-04-24T03:22:03;16.90;;;14.20;;
8803;SDS011;4438;50.890;4.726;2023-04-24T03:24:29;16.60;;;14.13;;
8803;SDS011;4438;50.890;4.726;2023-04-24T03:26:56;15.37;;;13.47;;
8803;SDS011;4438;50.890;4.726;2023-04-24T03:29:22;16.03;;;13.73;;
8803;SDS011;4438;50.890;4.726;2023-04-24T03:31:48;16.27;;;13.87;;
8803;SDS011;4438;50.890;4.726;2023-04-24T03:34:14;15.00;;;13.37;;
8803;SDS011;4438;50.890;4.726;2023-04-24T03:36:40;13.80;;;12.03;;
8803;SDS011;4438;50.890;4.726;2023-04-24T03:39:07;14.37;;;12.30;;
8803;SDS011;4438;50.890;4.726;2023-04-24T03:41:33;13.53;;;12.13;;
8803;SDS011;4438;50.890;4.726;2023-04-24T03:43:59;13.40;;;11.80;;
8803;SDS011;4438;50.890;4.726;2023-04-24T03:46:25;14.93;;;11.93;;
8803;SDS011;4438;50.890;4.726;2023-04-24T03:48:51;13.33;;;11.90;;
8803;SDS011;4438;50.890;4.726;2023-04-24T03:51:17;13.07;;;11.67;;
8803;SDS011;4438;50.890;4.726;2023-04-24T03:53:45;15.17;;;12.30;;
8803;SDS011;4438;50.890;4.726;2023-04-24T03:56:11;14.87;;;12.33;;
8803;SDS011;4438;50.890;4.726;2023-04-24T03:58:37;14.60;;;11.60;;
8803;SDS011;4438;50.890;4.726;2023-04-24T04:01:03;14.13;;;12.00;;
8803;SDS011;4438;50.890;4.726;2023-04-24T04:03:30;13.13;;;11.60;;
8803;SDS011;4438;50.890;4.726;2023-04-24T04:05:56;12.63;;;10.80;;
8803;SDS011;4438;50.890;4.726;2023-04-24T04:08:22;13.00;;;11.27;;
8803;SDS011;4438;50.890;4.726;2023-04-24T04:10:48;11.63;;;10.33;;
8803;SDS011;4438;50.890;4.726;2023-04-24T04:13:14;11.90;;;10.37;;
8803;SDS011;4438;50.890;4.726;2023-04-24T04:15:40;12.87;;;10.23;;
8803;SDS011;4438;50.890;4.726;2023-04-24T04:18:07;10.97;;;9.87;;
8803;SDS011;4438;50.890;4.726;2023-04-24T04:20:33;11.83;;;9.33;;
8803;SDS011;4438;50.890;4.726;2023-04-24T04:22:59;9.20;;;8.30;;
8803;SDS011;4438;50.890;4.726;2023-04-24T04:25:25;9.77;;;8.40;;
8803;SDS011;4438;50.890;4.726;2023-04-24T04:27:51;10.80;;;8.40;;
8803;SDS011;4438;50.890;4.726;2023-04-24T04:30:18;11.47;;;8.00;;
8803;SDS011;4438;50.890;4.726;2023-04-24T04:32:46;10.47;;;8.43;;
8803;SDS011;4438;50.890;4.726;2023-04-24T04:35:12;8.80;;;7.70;;
8803;SDS011;4438;50.890;4.726;2023-04-24T04:37:38;8.60;;;7.20;;
8803;SDS011;4438;50.890;4.726;2023-04-24T04:40:05;9.07;;;7.13;;
8803;SDS011;4438;50.890;4.726;2023-04-24T04:42:32;8.40;;;7.27;;
8803;SDS011;4438;50.890;4.726;2023-04-24T04:45:01;9.53;;;7.77;;
8803;SDS011;4438;50.890;4.726;2023-04-24T04:47:27;8.10;;;7.30;;
8803;SDS011;4438;50.890;4.726;2023-04-24T04:49:56;7.63;;;6.87;;
8803;SDS011;4438;50.890;4.726;2023-04-24T04:52:22;8.23;;;6.70;;
8803;SDS011;4438;50.890;4.726;2023-04-24T04:54:50;8.47;;;6.63;;
8803;SDS011;4438;50.890;4.726;2023-04-24T04:57:17;8.60;;;6.33;;
8803;SDS011;4438;50.890;4.726;2023-04-24T04:59:43;7.20;;;6.50;;
8803;SDS011;4438;50.890;4.726;2023-04-24T05:02:09;8.53;;;7.27;;
8803;SDS011;4438;50.890;4.726;2023-04-24T05:04:36;9.33;;;7.70;;
8803;SDS011;4438;50.890;4.726;2023-04-24T05:07:02;11.40;;;8.80;;
8803;SDS011;4438;50.890;4.726;2023-04-24T05:09:28;12.20;;;8.63;;
8803;SDS011;4438;50.890;4.726;2023-04-24T05:11:55;10.40;;;9.27;;
8803;SDS011;4438;50.890;4.726;2023-04-24T05:14:21;12.07;;;10.23;;
8803;SDS011;4438;50.890;4.726;2023-04-24T05:16:47;12.27;;;10.90;;
8803;SDS011;4438;50.890;4.726;2023-04-24T05:19:13;14.17;;;11.00;;
8803;SDS011;4438;50.890;4.726;2023-04-24T05:21:42;13.87;;;11.13;;
8803;SDS011;4438;50.890;4.726;2023-04-24T05:24:08;12.93;;;11.40;;
8803;SDS011;4438;50.890;4.726;2023-04-24T05:26:35;14.93;;;12.00;;
8803;SDS011;4438;50.890;4.726;2023-04-24T05:29:01;16.27;;;12.30;;
8803;SDS011;4438;50.890;4.726;2023-04-24T05:31:28;14.37;;;11.30;;
8803;SDS011;4438;50.890;4.726;2023-04-24T05:33:54;12.63;;;11.10;;
8803;SDS011;4438;50.890;4.726;2023-04-24T05:36:20;12.97;;;10.57;;
8803;SDS011;4438;50.890;4.726;2023-04-24T05:38:46;12.63;;;10.90;;
8803;SDS011;4438;50.890;4.726;2023-04-24T05:41:12;12.90;;;11.53;;
8803;SDS011;4438;50.890;4.726;2023-04-24T05:43:38;12.90;;;10.97;;
8803;SDS011;4438;50.890;4.726;2023-04-24T05:46:04;14.57;;;11.70;;
8803;SDS011;4438;50.890;4.726;2023-04-24T05:48:30;15.10;;;11.77;;
8803;SDS011;4438;50.890;4.726;2023-04-24T05:50:56;14.50;;;11.83;;
8803;SDS011;4438;50.890;4.726;2023-04-24T05:53:22;14.30;;;10.43;;
8803;SDS011;4438;50.890;4.726;2023-04-24T05:55:48;14.27;;;11.40;;
8803;SDS011;4438;50.890;4.726;2023-04-24T05:58:14;13.27;;;11.13;;
8803;SDS011;4438;50.890;4.726;2023-04-24T06:00:41;14.60;;;11.43;;
8803;SDS011;4438;50.890;4.726;2023-04-24T06:03:08;17.17;;;12.40;;
8803;SDS011;4438;50.890;4.726;2023-04-24T06:05:34;14.33;;;11.43;;
8803;SDS011;4438;50.890;4.726;2023-04-24T06:08:00;12.83;;;11.33;;
8803;SDS011;4438;50.890;4.726;2023-04-24T06:10:26;15.57;;;12.23;;
8803;SDS011;4438;50.890;4.726;2023-04-24T06:12:52;15.50;;;12.07;;
8803;SDS011;4438;50.890;4.726;2023-04-24T06:15:21;15.10;;;12.20;;
8803;SDS011;4438;50.890;4.726;2023-04-24T06:17:47;15.47;;;12.20;;
8803;SDS011;4438;50.890;4.726;2023-04-24T06:20:13;16.90;;;12.43;;
8803;SDS011;4438;50.890;4.726;2023-04-24T06:22:39;22.27;;;13.30;;
8803;SDS011;4438;50.890;4.726;2023-04-24T06:25:05;16.50;;;12.93;;
8803;SDS011;4438;50.890;4.726;2023-04-24T06:27:32;17.67;;;13.43;;
8803;SDS011;4438;50.890;4.726;2023-04-24T06:29:58;16.37;;;13.13;;
8803;SDS011;4438;50.890;4.726;2023-04-24T06:32:24;17.60;;;14.37;;
8803;SDS011;4438;50.890;4.726;2023-04-24T06:34:52;18.23;;;13.97;;
8803;SDS011;4438;50.890;4.726;2023-04-24T06:37:18;18.23;;;14.50;;
8803;SDS011;4438;50.890;4.726;2023-04-24T06:39:45;18.70;;;14.70;;
8803;SDS011;4438;50.890;4.726;2023-04-24T06:42:11;18.70;;;14.87;;
8803;SDS011;4438;50.890;4.726;2023-04-24T06:44:37;21.70;;;15.37;;
8803;SDS011;4438;50.890;4.726;2023-04-24T06:47:11;18.63;;;15.20;;
8803;SDS011;4438;50.890;4.726;2023-04-24T06:49:38;18.20;;;15.13;;
8803;SDS011;4438;50.890;4.726;2023-04-24T06:52:05;20.83;;;15.37;;
8803;SDS011;4438;50.890;4.726;2023-04-24T06:54:31;20.17;;;15.00;;
8803;SDS011;4438;50.890;4.726;2023-04-24T06:56:58;20.63;;;15.57;;
8803;SDS011;4438;50.890;4.726;2023-04-24T06:59:25;24.47;;;15.90;;
8803;SDS011;4438;50.890;4.726;2023-04-24T07:01:52;20.30;;;15.57;;
8803;SDS011;4438;50.890;4.726;2023-04-24T07:04:18;21.67;;;15.60;;
8803;SDS011;4438;50.890;4.726;2023-04-24T07:06:45;22.90;;;15.63;;
8803;SDS011;4438;50.890;4.726;2023-04-24T07:09:11;23.60;;;16.40;;
8803;SDS011;4438;50.890;4.726;2023-04-24T07:11:39;22.57;;;16.50;;
8803;SDS011;4438;50.890;4.726;2023-04-24T07:14:06;24.40;;;17.13;;
8803;SDS011;4438;50.890;4.726;2023-04-24T07:16:32;21.40;;;17.03;;
8803;SDS011;4438;50.890;4.726;2023-04-24T07:18:58;27.50;;;18.37;;
8803;SDS011;4438;50.890;4.726;2023-04-24T07:21:24;23.83;;;16.60;;
8803;SDS011;4438;50.890;4.726;2023-04-24T07:23:50;22.13;;;16.33;;
8803;SDS011;4438;50.890;4.726;2023-04-24T07:26:16;24.40;;;16.17;;
8803;SDS011;4438;50.890;4.726;2023-04-24T07:28:42;21.10;;;16.10;;
8803;SDS011;4438;50.890;4.726;2023-04-24T07:31:10;21.37;;;15.70;;
8803;SDS011;4438;50.890;4.726;2023-04-24T07:33:36;21.33;;;15.87;;
8803;SDS011;4438;50.890;4.726;2023-04-24T07:36:03;21.23;;;16.17;;
8803;SDS011;4438;50.890;4.726;2023-04-24T07:38:29;22.10;;;16.60;;
8803;SDS011;4438;50.890;4.726;2023-04-24T07:40:56;23.13;;;16.47;;
8803;SDS011;4438;50.890;4.726;2023-04-24T07:43:22;22.23;;;16.47;;
8803;SDS011;4438;50.890;4.726;2023-04-24T07:45:51;21.70;;;16.50;;
8803;SDS011;4438;50.890;4.726;2023-04-24T07:48:18;21.30;;;15.93;;
8803;SDS011;4438;50.890;4.726;2023-04-24T07:50:46;22.67;;;16.83;;
8803;SDS011;4438;50.890;4.726;2023-04-24T07:53:12;20.77;;;16.43;;
8803;SDS011;4438;50.890;4.726;2023-04-24T07:55:38;21.20;;;16.33;;
8803;SDS011;4438;50.890;4.726;2023-04-24T07:58:04;19.77;;;16.23;;
8803;SDS011;4438;50.890;4.726;2023-04-24T08:00:30;23.40;;;16.50;;
8803;SDS011;4438;50.890;4.726;2023-04-24T08:02:56;26.67;;;16.13;;
8803;SDS011;4438;50.890;4.726;2023-04-24T08:05:23;21.10;;;15.50;;
8803;SDS011;4438;50.890;4.726;2023-04-24T08:07:50;19.33;;;14.63;;
8803;SDS011;4438;50.890;4.726;2023-04-24T08:10:16;21.27;;;14.60;;
8803;SDS011;4438;50.890;4.726;2023-04-24T08:12:42;21.03;;;14.70;;
8803;SDS011;4438;50.890;4.726;2023-04-24T08:15:08;22.73;;;14.63;;
8803;SDS011;4438;50.890;4.726;2023-04-24T08:17:35;20.43;;;15.07;;
8803;SDS011;4438;50.890;4.726;2023-04-24T08:20:01;20.43;;;15.40;;
8803;SDS011;4438;50.890;4.726;2023-04-24T08:22:28;16.70;;;13.30;;
8803;SDS011;4438;50.890;4.726;2023-04-24T08:24:55;21.67;;;13.63;;
8803;SDS011;4438;50.890;4.726;2023-04-24T08:27:22;20.83;;;12.27;;
8803;SDS011;4438;50.890;4.726;2023-04-24T08:29:48;17.00;;;10.73;;
8803;SDS011;4438;50.890;4.726;2023-04-24T08:32:14;16.37;;;9.60;;
8803;SDS011;4438;50.890;4.726;2023-04-24T08:34:40;17.77;;;8.80;;
8803;SDS011;4438;50.890;4.726;2023-04-24T08:37:07;13.93;;;8.90;;
8803;SDS011;4438;50.890;4.726;2023-04-24T08:39:33;16.63;;;9.33;;
8803;SDS011;4438;50.890;4.726;2023-04-24T08:41:59;13.83;;;9.00;;
8803;SDS011;4438;50.890;4.726;2023-04-24T08:44:32;12.20;;;8.07;;
8803;SDS011;4438;50.890;4.726;2023-04-24T08:46:59;13.87;;;8.93;;
8803;SDS011;4438;50.890;4.726;2023-04-24T08:49:26;15.03;;;9.70;;
8803;SDS011;4438;50.890;4.726;2023-04-24T08:51:54;15.73;;;9.97;;
8803;SDS011;4438;50.890;4.726;2023-04-24T08:54:20;17.20;;;10.13;;
8803;SDS011;4438;50.890;4.726;2023-04-24T08:56:47;16.93;;;10.10;;
8803;SDS011;4438;50.890;4.726;2023-04-24T08:59:14;16.30;;;9.83;;
8803;SDS011;4438;50.890;4.726;2023-04-24T09:01:41;13.07;;;9.83;;
8803;SDS011;4438;50.890;4.726;2023-04-24T09:04:08;14.80;;;10.93;;
8803;SDS011;4438;50.890;4.726;2023-04-24T09:06:38;13.97;;;8.60;;
8803;SDS011;4438;50.890;4.726;2023-04-24T09:09:04;10.73;;;8.10;;
8803;SDS011;4438;50.890;4.726;2023-04-24T09:11:31;13.70;;;7.87;;
8803;SDS011;4438;50.890;4.726;2023-04-24T09:14:00;14.10;;;8.30;;
8803;SDS011;4438;50.890;4.726;2023-04-24T09:16:26;13.10;;;7.47;;
8803;SDS011;4438;50.890;4.726;2023-04-24T09:18:53;12.20;;;7.43;;
8803;SDS011;4438;50.890;4.726;2023-04-24T09:21:20;12.63;;;7.33;;
8803;SDS011;4438;50.890;4.726;2023-04-24T09:23:47;12.60;;;8.57;;
8803;SDS011;4438;50.890;4.726;2023-04-24T09:26:23;10.57;;;7.57;;
8803;SDS011;4438;50.890;4.726;2023-04-24T09:28:49;13.80;;;7.80;;
8803;SDS011;4438;50.890;4.726;2023-04-24T09:31:15;16.53;;;9.10;;
8803;SDS011;4438;50.890;4.726;2023-04-24T09:34:02;10.90;;;6.93;;
8803;SDS011;4438;50.890;4.726;2023-04-24T09:36:34;9.93;;;7.07;;
8803;SDS011;4438;50.890;4.726;2023-04-24T09:39:07;12.80;;;7.80;;
8803;SDS011;4438;50.890;4.726;2023-04-24T09:41:35;9.80;;;7.00;;
8803;SDS011;4438;50.890;4.726;2023-04-24T09:44:13;9.43;;;6.50;;
8803;SDS011;4438;50.890;4.726;2023-04-24T09:46:40;12.27;;;6.87;;
8803;SDS011;4438;50.890;4.726;2023-04-24T09:49:10;10.87;;;6.60;;
8803;SDS011;4438;50.890;4.726;2023-04-24T09:51:36;10.50;;;6.43;;
8803;SDS011;4438;50.890;4.726;2023-04-24T09:54:03;9.80;;;6.20;;
8803;SDS011;4438;50.890;4.726;2023-04-24T09:56:33;12.17;;;6.63;;
8803;SDS011;4438;50.890;4.726;2023-04-24T09:59:06;7.97;;;5.23;;
8803;SDS011;4438;50.890;4.726;2023-04-24T10:01:32;8.87;;;5.23;;
8803;SDS011;4438;50.890;4.726;2023-04-24T10:03:58;7.60;;;5.37;;
8803;SDS011;4438;50.890;4.726;2023-04-24T10:06:32;9.83;;;5.37;;
8803;SDS011;4438;50.890;4.726;2023-04-24T10:08:58;6.53;;;4.53;;
8803;SDS011;4438;50.890;4.726;2023-04-24T10:11:28;5.67;;;4.30;;
8803;SDS011;4438;50.890;4.726;2023-04-24T10:13:54;7.07;;;4.57;;
8803;SDS011;4438;50.890;4.726;2023-04-24T10:16:21;8.13;;;4.07;;
8803;SDS011;4438;50.890;4.726;2023-04-24T10:18:48;6.67;;;4.47;;
8803;SDS011;4438;50.890;4.726;2023-04-24T10:21:17;5.73;;;4.13;;
8803;SDS011;4438;50.890;4.726;2023-04-24T10:23:43;7.93;;;4.83;;
8803;SDS011;4438;50.890;4.726;2023-04-24T10:26:14;7.57;;;5.33;;
8803;SDS011;4438;50.890;4.726;2023-04-24T10:28:46;6.30;;;5.10;;
8803;SDS011;4438;50.890;4.726;2023-04-24T10:31:13;7.67;;;4.83;;
8803;SDS011;4438;50.890;4.726;2023-04-24T10:33:42;8.73;;;5.43;;
8803;SDS011;4438;50.890;4.726;2023-04-24T10:36:09;8.67;;;5.07;;
8803;SDS011;4438;50.890;4.726;2023-04-24T10:38:36;7.33;;;4.53;;
8803;SDS011;4438;50.890;4.726;2023-04-24T10:43:34;7.57;;;5.13;;
8803;SDS011;4438;50.890;4.726;2023-04-24T10:46:01;6.53;;;4.83;;
8803;SDS011;4438;50.890;4.726;2023-04-24T10:48:28;6.80;;;5.00;;
8803;SDS011;4438;50.890;4.726;2023-04-24T10:50:54;7.03;;;4.63;;
8803;SDS011;4438;50.890;4.726;2023-04-24T10:53:21;7.77;;;4.90;;
8803;SDS011;4438;50.890;4.726;2023-04-24T10:55:52;6.00;;;4.60;;
8803;SDS011;4438;50.890;4.726;2023-04-24T10:58:22;5.63;;;4.87;;
8803;SDS011;4438;50.890;4.726;2023-04-24T11:00:56;6.83;;;4.07;;
8803;SDS011;4438;50.890;4.726;2023-04-24T11:03:23;6.90;;;4.77;;
8803;SDS011;4438;50.890;4.726;2023-04-24T11:05:55;5.80;;;4.10;;
8803;SDS011;4438;50.890;4.726;2023-04-24T11:08:23;7.73;;;5.00;;
8803;SDS011;4438;50.890;4.726;2023-04-24T11:11:04;7.83;;;4.40;;
8803;SDS011;4438;50.890;4.726;2023-04-24T11:18:51;11.33;;;5.13;;
8803;SDS011;4438;50.890;4.726;2023-04-24T11:21:19;7.20;;;5.03;;
8803;SDS011;4438;50.890;4.726;2023-04-24T11:23:48;7.20;;;5.37;;
8803;SDS011;4438;50.890;4.726;2023-04-24T11:26:19;5.93;;;4.70;;
8803;SDS011;4438;50.890;4.726;2023-04-24T11:28:48;5.87;;;4.60;;
8803;SDS011;4438;50.890;4.726;2023-04-24T11:34:09;6.97;;;5.17;;
8803;SDS011;4438;50.890;4.726;2023-04-24T11:36:36;6.27;;;4.87;;
8803;SDS011;4438;50.890;4.726;2023-04-24T11:39:02;7.87;;;5.17;;
8803;SDS011;4438;50.890;4.726;2023-04-24T11:41:28;6.67;;;5.00;;
8803;SDS011;4438;50.890;4.726;2023-04-24T11:43:55;8.00;;;4.80;;
8803;SDS011;4438;50.890;4.726;2023-04-24T11:46:21;9.17;;;5.67;;
8803;SDS011;4438;50.890;4.726;2023-04-24T11:48:48;9.07;;;5.40;;
8803;SDS011;4438;50.890;4.726;2023-04-24T11:51:14;7.57;;;4.70;;
8803;SDS011;4438;50.890;4.726;2023-04-24T11:53:40;6.07;;;4.80;;
8803;SDS011;4438;50.890;4.726;2023-04-24T11:56:08;8.77;;;5.53;;
8803;SDS011;4438;50.890;4.726;2023-04-24T11:58:35;11.30;;;5.53;;
8803;SDS011;4438;50.890;4.726;2023-04-24T12:01:01;6.97;;;5.13;;
8803;SDS011;4438;50.890;4.726;2023-04-24T12:03:27;6.13;;;5.17;;
8803;SDS011;4438;50.890;4.726;2023-04-24T12:06:04;5.50;;;4.97;;
8803;SDS011;4438;50.890;4.726;2023-04-24T12:08:31;7.57;;;5.30;;
8803;SDS011;4438;50.890;4.726;2023-04-24T12:10:57;8.57;;;4.97;;
8803;SDS011;4438;50.890;4.726;2023-04-24T12:13:25;6.20;;;5.17;;
8803;SDS011;4438;50.890;4.726;2023-04-24T12:15:51;8.40;;;5.40;;
8803;SDS011;4438;50.890;4.726;2023-04-24T12:18:17;8.93;;;5.27;;
8803;SDS011;4438;50.890;4.726;2023-04-24T12:20:43;5.97;;;4.90;;
8803;SDS011;4438;50.890;4.726;2023-04-24T12:23:09;8.33;;;5.33;;
8803;SDS011;4438;50.890;4.726;2023-04-24T12:25:35;5.83;;;5.20;;
8803;SDS011;4438;50.890;4.726;2023-04-24T12:30:32;6.23;;;4.80;;
8803;SDS011;4438;50.890;4.726;2023-04-24T12:32:58;6.20;;;4.77;;
8803;SDS011;4438;50.890;4.726;2023-04-24T12:35:27;5.87;;;5.33;;
8803;SDS011;4438;50.890;4.726;2023-04-24T12:37:53;7.53;;;4.60;;
8803;SDS011;4438;50.890;4.726;2023-04-24T12:40:20;5.97;;;4.97;;
8803;SDS011;4438;50.890;4.726;2023-04-24T12:42:47;7.40;;;4.80;;
8803;SDS011;4438;50.890;4.726;2023-04-24T12:45:14;5.07;;;4.57;;
8803;SDS011;4438;50.890;4.726;2023-04-24T12:47:41;6.03;;;5.00;;
8803;SDS011;4438;50.890;4.726;2023-04-24T12:50:08;5.17;;;4.10;;
8803;SDS011;4438;50.890;4.726;2023-04-24T12:52:34;5.17;;;4.23;;
8803;SDS011;4438;50.890;4.726;2023-04-24T12:55:01;6.83;;;5.00;;
8803;SDS011;4438;50.890;4.726;2023-04-24T12:57:28;5.53;;;4.27;;
8803;SDS011;4438;50.890;4.726;2023-04-24T12:59:55;6.30;;;4.30;;
8803;SDS011;4438;50.890;4.726;2023-04-24T13:02:22;7.60;;;4.40;;
8803;SDS011;4438;50.890;4.726;2023-04-24T13:04:49;7.00;;;4.70;;
8803;SDS011;4438;50.890;4.726;2023-04-24T13:07:15;9.30;;;4.80;;
8803;SDS011;4438;50.890;4.726;2023-04-24T13:09:41;5.80;;;4.50;;
8803;SDS011;4438;50.890;4.726;2023-04-24T13:12:08;6.63;;;4.63;;
8803;SDS011;4438;50.890;4.726;2023-04-24T13:14:34;7.40;;;4.83;;
8803;SDS011;4438;50.890;4.726;2023-04-24T13:17:01;7.07;;;4.63;;
8803;SDS011;4438;50.890;4.726;2023-04-24T13:19:28;4.93;;;4.50;;
8803;SDS011;4438;50.890;4.726;2023-04-24T13:21:54;5.60;;;4.50;;
8803;SDS011;4438;50.890;4.726;2023-04-24T13:24:22;6.63;;;4.90;;
8803;SDS011;4438;50.890;4.726;2023-04-24T13:26:54;6.10;;;4.70;;
8803;SDS011;4438;50.890;4.726;2023-04-24T13:29:21;7.43;;;4.70;;
8803;SDS011;4438;50.890;4.726;2023-04-24T13:31:50;6.10;;;4.23;;
8803;SDS011;4438;50.890;4.726;2023-04-24T13:34:16;5.83;;;4.30;;
8803;SDS011;4438;50.890;4.726;2023-04-24T13:36:42;5.17;;;4.17;;
8803;SDS011;4438;50.890;4.726;2023-04-24T13:39:08;6.43;;;4.57;;
8803;SDS011;4438;50.890;4.726;2023-04-24T13:41:35;5.47;;;4.13;;
8803;SDS011;4438;50.890;4.726;2023-04-24T13:44:02;5.53;;;4.00;;
8803;SDS011;4438;50.890;4.726;2023-04-24T13:46:28;5.20;;;3.60;;
8803;SDS011;4438;50.890;4.726;2023-04-24T13:48:55;6.27;;;3.77;;
8803;SDS011;4438;50.890;4.726;2023-04-24T13:51:22;3.90;;;3.30;;
8803;SDS011;4438;50.890;4.726;2023-04-24T13:53:48;5.83;;;3.57;;
8803;SDS011;4438;50.890;4.726;2023-04-24T13:56:14;5.63;;;4.03;;
8803;SDS011;4438;50.890;4.726;2023-04-24T13:58:40;9.27;;;4.70;;
8803;SDS011;4438;50.890;4.726;2023-04-24T14:01:07;5.80;;;3.67;;
8803;SDS011;4438;50.890;4.726;2023-04-24T14:03:33;6.23;;;3.30;;
8803;SDS011;4438;50.890;4.726;2023-04-24T14:05:59;5.03;;;3.57;;
8803;SDS011;4438;50.890;4.726;2023-04-24T14:08:25;5.07;;;3.97;;
8803;SDS011;4438;50.890;4.726;2023-04-24T14:10:51;9.27;;;4.20;;
8803;SDS011;4438;50.890;4.726;2023-04-24T14:13:17;6.97;;;3.63;;
8803;SDS011;4438;50.890;4.726;2023-04-24T14:15:44;4.37;;;3.50;;
8803;SDS011;4438;50.890;4.726;2023-04-24T14:18:10;4.37;;;3.57;;
8803;SDS011;4438;50.890;4.726;2023-04-24T14:20:36;3.10;;;2.63;;
8803;SDS011;4438;50.890;4.726;2023-04-24T14:23:02;4.10;;;3.07;;
8803;SDS011;4438;50.890;4.726;2023-04-24T14:25:29;4.97;;;3.30;;
8803;SDS011;4438;50.890;4.726;2023-04-24T14:27:55;3.23;;;2.80;;
8803;SDS011;4438;50.890;4.726;2023-04-24T14:30:21;2.87;;;2.43;;
8803;SDS011;4438;50.890;4.726;2023-04-24T14:32:47;5.27;;;3.00;;
8803;SDS011;4438;50.890;4.726;2023-04-24T14:35:14;3.50;;;2.80;;
8803;SDS011;4438;50.890;4.726;2023-04-24T14:37:40;3.47;;;2.77;;
8803;SDS011;4438;50.890;4.726;2023-04-24T14:40:08;3.10;;;2.27;;
8803;SDS011;4438;50.890;4.726;2023-04-24T14:42:34;3.23;;;2.57;;
8803;SDS011;4438;50.890;4.726;2023-04-24T14:45:01;3.07;;;2.50;;
8803;SDS011;4438;50.890;4.726;2023-04-24T14:47:27;3.53;;;2.70;;
8803;SDS011;4438;50.890;4.726;2023-04-24T14:49:54;3.23;;;2.50;;
8803;SDS011;4438;50.890;4.726;2023-04-24T14:52:20;4.67;;;2.87;;
8803;SDS011;4438;50.890;4.726;2023-04-24T14:54:46;3.47;;;2.60;;
8803;SDS011;4438;50.890;4.726;2023-04-24T14:57:12;4.03;;;2.73;;
8803;SDS011;4438;50.890;4.726;2023-04-24T14:59:39;5.13;;;2.80;;
8803;SDS011;4438;50.890;4.726;2023-04-24T15:02:05;3.60;;;3.20;;
8803;SDS011;4438;50.890;4.726;2023-04-24T15:04:32;4.17;;;3.07;;
8803;SDS011;4438;50.890;4.726;2023-04-24T15:06:58;5.40;;;3.27;;
8803;SDS011;4438;50.890;4.726;2023-04-24T15:09:24;5.73;;;3.63;;
8803;SDS011;4438;50.890;4.726;2023-04-24T15:11:51;4.70;;;3.53;;